sensor_id;sensor_type;location;lat;lon;timestamp;pressure;altitude;pressure_sealevel;temperature;humidity
16030;BME280;34770;49.272;11.070;2023-02-18T00:01:33;98452.19;;;9.53;100.00
16030;BME280;34770;49.272;11.070;2023-02-18T00:03:59;98447.28;;;9.58;100.00
16030;BME280;34770;49.272;11.070;2023-02-18T00:06:31;98451.56;;;9.56;100.00
16030;BME280;34770;49.272;11.070;2023-02-18T00:08:57;98441.72;;;9.58;100.00
16030;BME280;34770;49.272;11.070;2023-02-18T00:11:27;98445.66;;;9.57;100.00
16030;BME280;34770;49.272;11.070;2023-02-18T00:13:54;98437.84;;;9.51;100.00
16030;BME280;34770;49.272;11.070;2023-02-18T00:16:21;98450.22;;;9.62;100.00
16030;BME280;34770;49.272;11.070;2023-02-18T00:18:47;98449.56;;;9.56;100.00
16030;BME280;34770;49.272;11.070;2023-02-18T00:21:13;98431.44;;;9.59;100.00
16030;BME280;34770;49.272;11.070;2023-02-18T00:23:38;98441.72;;;9.58;100.00
16030;BME280;34770;49.272;11.070;2023-02-18T00:26:06;98448.91;;;9.60;100.00
16030;BME280;34770;49.272;11.070;2023-02-18T00:28:32;98439.25;;;9.66;100.00
16030;BME280;34770;49.272;11.070;2023-02-18T00:30:58;98428.97;;;9.57;100.00
16030;BME280;34770;49.272;11.070;2023-02-18T00:33:24;98419.72;;;9.45;100.00
16030;BME280;34770;49.272;11.070;2023-02-18T00:35:49;98421.16;;;9.51;100.00
16030;BME280;34770;49.272;11.070;2023-02-18T00:38:15;98449.72;;;9.60;100.00
16030;BME280;34770;49.272;11.070;2023-02-18T00:40:41;98435.81;;;9.60;100.00
16030;BME280;34770;49.272;11.070;2023-02-18T00:43:07;98440.22;;;9.70;100.00
16030;BME280;34770;49.272;11.070;2023-02-18T00:45:33;98440.22;;;9.70;100.00
16030;BME280;34770;49.272;11.070;2023-02-18T00:47:58;98403.16;;;9.57;100.00
16030;BME280;34770;49.272;11.070;2023-02-18T00:50:24;98441.69;;;9.67;100.00
16030;BME280;34770;49.272;11.070;2023-02-18T00:52:49;98412.66;;;9.56;100.00
16030;BME280;34770;49.272;11.070;2023-02-18T00:55:15;98443.00;;;9.70;100.00
16030;BME280;34770;49.272;11.070;2023-02-18T00:57:40;98434.19;;;9.68;100.00
16030;BME280;34770;49.272;11.070;2023-02-18T01:00:06;98424.06;;;9.63;100.00
16030;BME280;34770;49.272;11.070;2023-02-18T01:02:32;98439.59;;;9.64;100.00
16030;BME280;34770;49.272;11.070;2023-02-18T01:04:58;98430.47;;;9.55;100.00
16030;BME280;34770;49.272;11.070;2023-02-18T01:07:24;98439.28;;;9.57;100.00
16030;BME280;34770;49.272;11.070;2023-02-18T01:09:49;98447.13;;;9.55;100.00
16030;BME280;34770;49.272;11.070;2023-02-18T01:12:15;98449.91;;;9.55;100.00
16030;BME280;34770;49.272;11.070;2023-02-18T01:14:41;98446.03;;;9.47;100.00
16030;BME280;34770;49.272;11.070;2023-02-18T01:17:06;98443.59;;;9.46;100.00
16030;BME280;34770;49.272;11.070;2023-02-18T01:19:32;98432.47;;;9.37;100.00
16030;BME280;34770;49.272;11.070;2023-02-18T01:21:57;98424.03;;;9.24;100.00
16030;BME280;34770;49.272;11.070;2023-02-18T01:24:23;98430.09;;;9.18;100.00
16030;BME280;34770;49.272;11.070;2023-02-18T01:26:48;98437.75;;;9.21;100.00
16030;BME280;34770;49.272;11.070;2023-02-18T01:29:14;98421.94;;;9.13;100.00
16030;BME280;34770;49.272;11.070;2023-02-18T01:31:39;98427.97;;;9.15;100.00
16030;BME280;34770;49.272;11.070;2023-02-18T01:34:05;98426.53;;;9.08;100.00
16030;BME280;34770;49.272;11.070;2023-02-18T01:36:30;98423.75;;;9.08;100.00
16030;BME280;34770;49.272;11.070;2023-02-18T01:38:56;98418.19;;;9.08;100.00
16030;BME280;34770;49.272;11.070;2023-02-18T01:41:21;98411.50;;;8.92;100.00
16030;BME280;34770;49.272;11.070;2023-02-18T01:43:46;98413.97;;;9.02;100.00
16030;BME280;34770;49.272;11.070;2023-02-18T01:46:18;98421.78;;;9.00;100.00
16030;BME280;34770;49.272;11.070;2023-02-18T01:48:54;98421.97;;;8.95;100.00
16030;BME280;34770;49.272;11.070;2023-02-18T01:51:28;98418.06;;;8.96;100.00
16030;BME280;34770;49.272;11.070;2023-02-18T01:53:58;98418.22;;;8.91;100.00
16030;BME280;34770;49.272;11.070;2023-02-18T01:56:42;98427.88;;;8.93;100.00
16030;BME280;34770;49.272;11.070;2023-02-18T01:59:13;98427.03;;;8.93;100.00
16030;BME280;34770;49.272;11.070;2023-02-18T02:01:43;98423.75;;;8.91;100.00
16030;BME280;34770;49.272;11.070;2023-02-18T02:04:09;98428.19;;;8.92;100.00
16030;BME280;34770;49.272;11.070;2023-02-18T02:06:35;98425.41;;;8.92;100.00
16030;BME280;34770;49.272;11.070;2023-02-18T02:09:06;98399.78;;;8.69;100.00
16030;BME280;34770;49.272;11.070;2023-02-18T02:17:21;98410.06;;;8.86;100.00
16030;BME280;34770;49.272;11.070;2023-02-18T02:25:20;98400.28;;;8.80;100.00
16030;BME280;34770;49.272;11.070;2023-02-18T02:28:05;98400.63;;;8.78;100.00
16030;BME280;34770;49.272;11.070;2023-02-18T02:30:47;98394.09;;;8.83;100.00
16030;BME280;34770;49.272;11.070;2023-02-18T02:33:34;98397.00;;;8.77;100.00
16030;BME280;34770;49.272;11.070;2023-02-18T02:36:46;98390.63;;;8.86;100.00
16030;BME280;34770;49.272;11.070;2023-02-18T02:39:04;98395.69;;;8.84;100.00
16030;BME280;34770;49.272;11.070;2023-02-18T02:42:08;98389.97;;;8.80;100.00
16030;BME280;34770;49.272;11.070;2023-02-18T02:53:01;98365.34;;;8.78;100.00
16030;BME280;34770;49.272;11.070;2023-02-18T02:55:27;98377.56;;;8.86;100.00
16030;BME280;34770;49.272;11.070;2023-02-18T02:57:54;98362.91;;;8.77;100.00
16030;BME280;34770;49.272;11.070;2023-02-18T03:00:26;98369.41;;;8.81;100.00
16030;BME280;34770;49.272;11.070;2023-02-18T03:06:01;98370.25;;;8.82;100.00
16030;BME280;34770;49.272;11.070;2023-02-18T03:11:36;98369.75;;;8.80;100.00
16030;BME280;34770;49.272;11.070;2023-02-18T03:14:12;98369.75;;;8.80;100.00
16030;BME280;34770;49.272;11.070;2023-02-18T03:16:55;98355.22;;;8.65;100.00
16030;BME280;34770;49.272;11.070;2023-02-18T03:19:34;98368.94;;;8.79;100.00
16030;BME280;34770;49.272;11.070;2023-02-18T03:22:07;98365.34;;;8.78;100.00
16030;BME280;34770;49.272;11.070;2023-02-18T03:24:46;98348.53;;;8.66;100.00
16030;BME280;34770;49.272;11.070;2023-02-18T03:27:17;98364.38;;;8.74;100.00
16030;BME280;34770;49.272;11.070;2023-02-18T03:29:48;98367.94;;;8.75;100.00
16030;BME280;34770;49.272;11.070;2023-02-18T03:32:17;98349.53;;;8.61;100.00
16030;BME280;34770;49.272;11.070;2023-02-18T03:34:48;98358.31;;;8.72;100.00
16030;BME280;34770;49.272;11.070;2023-02-18T03:37:16;98379.88;;;8.67;100.00
16030;BME280;34770;49.272;11.070;2023-02-18T03:39:45;98371.06;;;8.73;100.00
16030;BME280;34770;49.272;11.070;2023-02-18T03:42:15;98376.44;;;8.78;100.00
16030;BME280;34770;49.272;11.070;2023-02-18T03:44:40;98377.09;;;8.75;100.00
16030;BME280;34770;49.272;11.070;2023-02-18T03:47:06;98382.66;;;8.75;100.00
16030;BME280;34770;49.272;11.070;2023-02-18T03:49:31;98379.72;;;8.72;100.00
16030;BME280;34770;49.272;11.070;2023-02-18T03:51:57;98379.22;;;8.78;100.00
16030;BME280;34770;49.272;11.070;2023-02-18T03:54:22;98358.50;;;8.67;100.00
16030;BME280;34770;49.272;11.070;2023-02-18T03:56:48;98375.47;;;8.74;100.00
16030;BME280;34770;49.272;11.070;2023-02-18T03:59:13;98377.75;;;8.72;100.00
16030;BME280;34770;49.272;11.070;2023-02-18T04:01:38;98377.09;;;8.75;100.00
16030;BME280;34770;49.272;11.070;2023-02-18T04:04:04;98379.22;;;8.70;100.00
16030;BME280;34770;49.272;11.070;2023-02-18T04:06:30;98384.94;;;8.73;100.00
16030;BME280;34770;49.272;11.070;2023-02-18T04:08:55;98386.88;;;8.73;100.00
16030;BME280;34770;49.272;11.070;2023-02-18T04:11:21;98382.97;;;8.74;100.00
16030;BME280;34770;49.272;11.070;2023-02-18T04:13:46;98383.13;;;8.77;100.00
16030;BME280;34770;49.272;11.070;2023-02-18T04:16:12;98375.78;;;8.73;100.00
16030;BME280;34770;49.272;11.070;2023-02-18T04:18:37;98358.31;;;8.72;100.00
16030;BME280;34770;49.272;11.070;2023-02-18T04:21:03;98348.88;;;8.65;100.00
16030;BME280;34770;49.272;11.070;2023-02-18T04:23:29;98374.34;;;8.75;100.00
16030;BME280;34770;49.272;11.070;2023-02-18T04:25:54;98367.59;;;8.76;100.00
16030;BME280;34770;49.272;11.070;2023-02-18T04:28:19;98361.78;;;8.69;100.00
16030;BME280;34770;49.272;11.070;2023-02-18T04:30:45;98379.69;;;8.81;100.00
16030;BME280;34770;49.272;11.070;2023-02-18T04:33:11;98376.44;;;8.78;100.00
16030;BME280;34770;49.272;11.070;2023-02-18T04:35:37;98367.94;;;8.75;100.00
16030;BME280;34770;49.272;11.070;2023-02-18T04:38:04;98361.59;;;8.74;100.00
16030;BME280;34770;49.272;11.070;2023-02-18T04:40:30;98363.88;;;8.72;100.00
16030;BME280;34770;49.272;11.070;2023-02-18T04:42:56;98361.91;;;8.73;100.00
16030;BME280;34770;49.272;11.070;2023-02-18T04:45:23;98357.81;;;8.70;100.00
16030;BME280;34770;49.272;11.070;2023-02-18T04:47:49;98374.16;;;8.81;100.00
16030;BME280;34770;49.272;11.070;2023-02-18T04:50:14;98355.22;;;8.74;100.00
16030;BME280;34770;49.272;11.070;2023-02-18T04:52:39;98365.66;;;8.86;100.00
16030;BME280;34770;49.272;11.070;2023-02-18T04:55:05;98374.31;;;8.84;100.00
16030;BME280;34770;49.272;11.070;2023-02-18T04:57:31;98356.84;;;8.75;100.00
16030;BME280;34770;49.272;11.070;2023-02-18T04:59:57;98356.06;;;8.66;100.00
16030;BME280;34770;49.272;11.070;2023-02-18T05:02:22;98374.50;;;8.79;100.00
16030;BME280;34770;49.272;11.070;2023-02-18T05:04:48;98375.13;;;8.85;100.00
16030;BME280;34770;49.272;11.070;2023-02-18T05:07:13;98373.00;;;8.82;100.00
16030;BME280;34770;49.272;11.070;2023-02-18T05:09:38;98366.16;;;8.79;100.00
16030;BME280;34770;49.272;11.070;2023-02-18T05:12:05;98370.25;;;8.82;100.00
16030;BME280;34770;49.272;11.070;2023-02-18T05:14:30;98364.06;;;8.67;100.00
16030;BME280;34770;49.272;11.070;2023-02-18T05:16:56;98363.38;;;8.70;100.00
16030;BME280;34770;49.272;11.070;2023-02-18T05:19:21;98361.78;;;8.69;100.00
16030;BME280;34770;49.272;11.070;2023-02-18T05:21:47;98374.00;;;8.68;100.00
16030;BME280;34770;49.272;11.070;2023-02-18T05:24:13;98372.19;;;8.72;100.00
16030;BME280;34770;49.272;11.070;2023-02-18T05:26:38;98359.66;;;8.66;100.00
16030;BME280;34770;49.272;11.070;2023-02-18T05:29:04;98370.88;;;8.78;100.00
16030;BME280;34770;49.272;11.070;2023-02-18T05:31:30;98361.91;;;8.73;100.00
16030;BME280;34770;49.272;11.070;2023-02-18T05:33:55;98365.19;;;8.75;100.00
16030;BME280;34770;49.272;11.070;2023-02-18T05:36:21;98346.91;;;8.65;100.00
16030;BME280;34770;49.272;11.070;2023-02-18T05:38:46;98356.19;;;8.78;100.00
16030;BME280;34770;49.272;11.070;2023-02-18T05:41:12;98350.31;;;8.80;100.00
16030;BME280;34770;49.272;11.070;2023-02-18T05:43:37;98352.44;;;8.83;100.00
16030;BME280;34770;49.272;11.070;2023-02-18T05:46:21;98352.75;;;8.81;100.00
16030;BME280;34770;49.272;11.070;2023-02-18T05:48:47;98349.34;;;8.75;100.00
16030;BME280;34770;49.272;11.070;2023-02-18T05:51:12;98342.16;;;8.74;100.00
16030;BME280;34770;49.272;11.070;2023-02-18T05:53:38;98341.84;;;8.67;100.00
16030;BME280;34770;49.272;11.070;2023-02-18T05:56:04;98351.63;;;8.73;100.00
16030;BME280;34770;49.272;11.070;2023-02-18T05:58:29;98352.97;;;8.67;100.00
16030;BME280;34770;49.272;11.070;2023-02-18T06:00:55;98342.81;;;8.71;100.00
16030;BME280;34770;49.272;11.070;2023-02-18T06:03:20;98333.34;;;8.72;100.00
16030;BME280;34770;49.272;11.070;2023-02-18T06:05:49;98333.34;;;8.72;100.00
16030;BME280;34770;49.272;11.070;2023-02-18T06:08:14;98332.03;;;8.78;100.00
16030;BME280;34770;49.272;11.070;2023-02-18T06:10:40;98333.66;;;8.80;100.00
16030;BME280;34770;49.272;11.070;2023-02-18T06:13:05;98346.41;;;8.81;100.00
16030;BME280;34770;49.272;11.070;2023-02-18T06:15:31;98329.44;;;8.73;100.00
16030;BME280;34770;49.272;11.070;2023-02-18T06:17:56;98355.22;;;8.83;100.00
16030;BME280;34770;49.272;11.070;2023-02-18T06:20:21;98355.03;;;8.88;100.00
16030;BME280;34770;49.272;11.070;2023-02-18T06:22:47;98358.16;;;8.86;100.00
16030;BME280;34770;49.272;11.070;2023-02-18T06:25:12;98367.78;;;8.80;100.00
16030;BME280;34770;49.272;11.070;2023-02-18T06:27:38;98358.97;;;8.78;100.00
16030;BME280;34770;49.272;11.070;2023-02-18T06:30:04;98342.34;;;8.69;100.00
16030;BME280;34770;49.272;11.070;2023-02-18T06:32:29;98343.97;;;8.79;100.00
16030;BME280;34770;49.272;11.070;2023-02-18T06:34:55;98347.03;;;8.77;100.00
16030;BME280;34770;49.272;11.070;2023-02-18T06:37:20;98342.16;;;8.74;100.00
16030;BME280;34770;49.272;11.070;2023-02-18T06:39:46;98347.69;;;8.83;100.00
16030;BME280;34770;49.272;11.070;2023-02-18T06:42:11;98337.56;;;8.78;100.00
16030;BME280;34770;49.272;11.070;2023-02-18T06:44:37;98349.97;;;8.90;100.00
16030;BME280;34770;49.272;11.070;2023-02-18T06:47:02;98350.13;;;8.93;100.00
16030;BME280;34770;49.272;11.070;2023-02-18T06:49:28;98355.84;;;8.97;100.00
16030;BME280;34770;49.272;11.070;2023-02-18T06:51:54;98339.53;;;8.87;100.00
16030;BME280;34770;49.272;11.070;2023-02-18T06:54:19;98346.03;;;9.00;100.00
16030;BME280;34770;49.272;11.070;2023-02-18T06:56:45;98330.34;;;8.95;100.00
16030;BME280;34770;49.272;11.070;2023-02-18T06:59:11;98357.94;;;9.00;100.00
16030;BME280;34770;49.272;11.070;2023-02-18T07:01:36;98350.28;;;8.97;100.00
16030;BME280;34770;49.272;11.070;2023-02-18T07:04:01;98353.53;;;8.99;100.00
16030;BME280;34770;49.272;11.070;2023-02-18T07:06:27;98322.03;;;8.95;100.00
16030;BME280;34770;49.272;11.070;2023-02-18T07:08:52;98317.28;;;8.96;100.00
16030;BME280;34770;49.272;11.070;2023-02-18T07:11:18;98318.75;;;8.93;100.00
16030;BME280;34770;49.272;11.070;2023-02-18T07:13:43;98313.03;;;8.98;100.00
16030;BME280;34770;49.272;11.070;2023-02-18T07:16:09;98319.41;;;8.99;100.00
16030;BME280;34770;49.272;11.070;2023-02-18T07:18:34;98316.28;;;9.00;100.00
16030;BME280;34770;49.272;11.070;2023-02-18T07:21:00;98317.59;;;9.03;100.00
16030;BME280;34770;49.272;11.070;2023-02-18T07:23:25;98310.72;;;9.00;100.00
16030;BME280;34770;49.272;11.070;2023-02-18T07:25:51;98300.31;;;8.88;100.00
16030;BME280;34770;49.272;11.070;2023-02-18T07:28:16;98311.03;;;9.07;100.00
16030;BME280;34770;49.272;11.070;2023-02-18T07:30:42;98309.22;;;9.12;100.00
16030;BME280;34770;49.272;11.070;2023-02-18T07:33:07;98298.41;;;9.19;100.00
16030;BME280;34770;49.272;11.070;2023-02-18T07:35:33;98314.22;;;9.27;100.00
16030;BME280;34770;49.272;11.070;2023-02-18T07:37:58;98300.38;;;9.18;100.00
16030;BME280;34770;49.272;11.070;2023-02-18T07:40:24;98302.16;;;9.23;100.00
16030;BME280;34770;49.272;11.070;2023-02-18T07:42:49;98306.22;;;9.25;100.00
16030;BME280;34770;49.272;11.070;2023-02-18T07:45:15;98298.69;;;9.26;100.00
16030;BME280;34770;49.272;11.070;2023-02-18T07:47:40;98315.84;;;9.28;100.00
16030;BME280;34770;49.272;11.070;2023-02-18T07:50:08;98305.69;;;9.32;100.00
16030;BME280;34770;49.272;11.070;2023-02-18T07:52:34;98309.72;;;9.44;100.00
16030;BME280;34770;49.272;11.070;2023-02-18T07:54:59;98315.09;;;9.49;100.00
16030;BME280;34770;49.272;11.070;2023-02-18T07:57:25;98316.25;;;9.48;100.00
16030;BME280;34770;49.272;11.070;2023-02-18T07:59:50;98308.38;;;9.50;100.00
16030;BME280;34770;49.272;11.070;2023-02-18T08:02:21;98311.81;;;9.47;100.00
16030;BME280;34770;49.272;11.070;2023-02-18T08:04:48;98293.72;;;9.40;100.00
16030;BME280;34770;49.272;11.070;2023-02-18T08:07:15;98298.72;;;9.56;100.00
16030;BME280;34770;49.272;11.070;2023-02-18T08:09:41;98299.66;;;9.60;100.00
16030;BME280;34770;49.272;11.070;2023-02-18T08:12:07;98298.84;;;9.60;100.00
16030;BME280;34770;49.272;11.070;2023-02-18T08:14:33;98296.34;;;9.67;100.00
16030;BME280;34770;49.272;11.070;2023-02-18T08:16:58;98272.34;;;9.62;100.00
16030;BME280;34770;49.272;11.070;2023-02-18T08:19:23;98293.31;;;9.81;100.00
16030;BME280;34770;49.272;11.070;2023-02-18T08:21:52;98279.88;;;9.83;100.00
16030;BME280;34770;49.272;11.070;2023-02-18T08:26:43;98296.34;;;9.88;100.00
16030;BME280;34770;49.272;11.070;2023-02-18T08:29:08;98299.00;;;9.84;100.00
16030;BME280;34770;49.272;11.070;2023-02-18T08:31:34;98289.78;;;9.93;100.00
16030;BME280;34770;49.272;11.070;2023-02-18T08:34:00;98283.22;;;9.97;100.00
16030;BME280;34770;49.272;11.070;2023-02-18T08:36:27;98286.69;;;9.94;100.00
16030;BME280;34770;49.272;11.070;2023-02-18T08:38:52;98269.16;;;9.94;100.00
16030;BME280;34770;49.272;11.070;2023-02-18T08:41:18;98282.53;;;10.00;100.00
16030;BME280;34770;49.272;11.070;2023-02-18T08:43:45;98260.03;;;9.93;100.00
16030;BME280;34770;49.272;11.070;2023-02-18T08:46:11;98268.63;;;10.00;100.00
16030;BME280;34770;49.272;11.070;2023-02-18T08:48:37;98265.66;;;10.05;100.00
16030;BME280;34770;49.272;11.070;2023-02-18T08:51:14;98255.59;;;10.13;100.00
16030;BME280;34770;49.272;11.070;2023-02-18T08:53:40;98272.81;;;10.28;100.00
16030;BME280;34770;49.272;11.070;2023-02-18T08:56:09;98257.81;;;10.41;100.00
16030;BME280;34770;49.272;11.070;2023-02-18T08:58:36;98261.59;;;10.58;100.00
16030;BME280;34770;49.272;11.070;2023-02-18T09:01:04;98231.00;;;10.36;100.00
16030;BME280;34770;49.272;11.070;2023-02-18T09:03:30;98249.59;;;10.45;100.00
16030;BME280;34770;49.272;11.070;2023-02-18T09:05:56;98248.22;;;10.51;100.00
16030;BME280;34770;49.272;11.070;2023-02-18T09:08:21;98224.91;;;10.43;100.00
16030;BME280;34770;49.272;11.070;2023-02-18T09:10:47;98252.19;;;10.62;100.00
16030;BME280;34770;49.272;11.070;2023-02-18T09:13:12;98242.69;;;10.63;100.00
16030;BME280;34770;49.272;11.070;2023-02-18T09:15:38;98229.16;;;10.74;100.00
16030;BME280;34770;49.272;11.070;2023-02-18T09:18:03;98231.81;;;10.83;100.00
16030;BME280;34770;49.272;11.070;2023-02-18T09:20:29;98229.47;;;10.85;100.00
16030;BME280;34770;49.272;11.070;2023-02-18T09:22:54;98227.16;;;10.87;100.00
16030;BME280;34770;49.272;11.070;2023-02-18T09:25:20;98213.72;;;10.89;100.00
16030;BME280;34770;49.272;11.070;2023-02-18T09:27:45;98206.75;;;10.83;100.00
16030;BME280;34770;49.272;11.070;2023-02-18T09:30:11;98196.19;;;10.89;100.00
16030;BME280;34770;49.272;11.070;2023-02-18T09:32:36;98191.56;;;10.80;100.00
16030;BME280;34770;49.272;11.070;2023-02-18T09:35:03;98177.53;;;10.77;100.00
16030;BME280;34770;49.272;11.070;2023-02-18T09:37:29;98176.81;;;10.92;100.00
16030;BME280;34770;49.272;11.070;2023-02-18T09:39:54;98169.16;;;11.01;100.00
16030;BME280;34770;49.272;11.070;2023-02-18T09:42:26;98169.41;;;10.96;100.00
16030;BME280;34770;49.272;11.070;2023-02-18T09:44:55;98185.63;;;11.07;100.00
16030;BME280;34770;49.272;11.070;2023-02-18T09:47:41;98189.72;;;11.09;100.00
16030;BME280;34770;49.272;11.070;2023-02-18T09:50:17;98188.66;;;11.14;100.00
16030;BME280;34770;49.272;11.070;2023-02-18T09:52:43;98181.91;;;11.15;100.00
16030;BME280;34770;49.272;11.070;2023-02-18T09:58:03;98201.88;;;11.17;100.00
16030;BME280;34770;49.272;11.070;2023-02-18T10:00:36;98188.19;;;11.12;100.00
16030;BME280;34770;49.272;11.070;2023-02-18T10:03:05;98200.84;;;11.09;100.00
16030;BME280;34770;49.272;11.070;2023-02-18T10:05:33;98193.78;;;11.12;100.00
16030;BME280;34770;49.272;11.070;2023-02-18T10:08:06;98199.31;;;11.24;100.00
16030;BME280;34770;49.272;11.070;2023-02-18T10:10:41;98208.81;;;11.36;100.00
16030;BME280;34770;49.272;11.070;2023-02-18T10:13:15;98209.88;;;11.43;100.00
16030;BME280;34770;49.272;11.070;2023-02-18T10:15:42;98192.91;;;11.48;100.00
16030;BME280;34770;49.272;11.070;2023-02-18T10:18:25;98183.16;;;11.42;100.00
16030;BME280;34770;49.272;11.070;2023-02-18T10:20:57;98183.69;;;11.60;100.00
16030;BME280;34770;49.272;11.070;2023-02-18T10:23:24;98189.81;;;11.66;100.00
16030;BME280;34770;49.272;11.070;2023-02-18T10:25:50;98193.75;;;11.77;100.00
16030;BME280;34770;49.272;11.070;2023-02-18T10:28:18;98196.13;;;11.91;100.00
16030;BME280;34770;49.272;11.070;2023-02-18T10:30:54;98188.50;;;11.76;98.91
16030;BME280;34770;49.272;11.070;2023-02-18T10:33:45;98202.44;;;11.88;99.16
16030;BME280;34770;49.272;11.070;2023-02-18T10:43:59;98182.78;;;11.97;90.06
16030;BME280;34770;49.272;11.070;2023-02-18T10:49:46;98161.97;;;11.94;93.26
16030;BME280;34770;49.272;11.070;2023-02-18T10:52:17;98170.47;;;11.98;90.44
16030;BME280;34770;49.272;11.070;2023-02-18T10:54:58;98174.53;;;12.01;91.02
16030;BME280;34770;49.272;11.070;2023-02-18T10:57:24;98164.53;;;12.00;90.56
16030;BME280;34770;49.272;11.070;2023-02-18T10:59:56;98162.63;;;12.04;88.85
16030;BME280;34770;49.272;11.070;2023-02-18T11:02:26;98175.88;;;12.07;88.06
16030;BME280;34770;49.272;11.070;2023-02-18T11:04:56;98151.28;;;11.96;88.93
16030;BME280;34770;49.272;11.070;2023-02-18T11:07:27;98176.56;;;12.16;88.33
16030;BME280;34770;49.272;11.070;2023-02-18T11:10:13;98145.75;;;12.12;86.54
16030;BME280;34770;49.272;11.070;2023-02-18T11:12:57;98123.34;;;12.09;86.04
16030;BME280;34770;49.272;11.070;2023-02-18T11:15:26;98132.53;;;12.25;87.78
16030;BME280;34770;49.272;11.070;2023-02-18T11:17:54;98141.28;;;12.40;85.40
16030;BME280;34770;49.272;11.070;2023-02-18T11:25:37;98146.25;;;12.47;84.58
16030;BME280;34770;49.272;11.070;2023-02-18T11:28:05;98129.41;;;12.43;86.37
16030;BME280;34770;49.272;11.070;2023-02-18T11:30:32;98131.38;;;12.42;85.27
16030;BME280;34770;49.272;11.070;2023-02-18T11:35:48;98136.78;;;12.67;84.47
16030;BME280;34770;49.272;11.070;2023-02-18T11:38:42;98133.00;;;12.75;84.30
16030;BME280;34770;49.272;11.070;2023-02-18T11:41:12;98104.81;;;12.65;84.65
16030;BME280;34770;49.272;11.070;2023-02-18T11:43:45;98089.41;;;12.71;82.45
16030;BME280;34770;49.272;11.070;2023-02-18T11:46:15;98069.97;;;12.58;80.27
16030;BME280;34770;49.272;11.070;2023-02-18T11:48:41;98114.16;;;12.72;78.38
16030;BME280;34770;49.272;11.070;2023-02-18T11:51:25;98090.69;;;12.57;78.87
16030;BME280;34770;49.272;11.070;2023-02-18T11:54:01;98095.88;;;12.75;76.23
16030;BME280;34770;49.272;11.070;2023-02-18T11:56:33;98094.72;;;13.12;75.31
16030;BME280;34770;49.272;11.070;2023-02-18T11:59:01;98096.72;;;13.31;73.63
16030;BME280;34770;49.272;11.070;2023-02-18T12:01:42;98097.19;;;13.33;73.10
16030;BME280;34770;49.272;11.070;2023-02-18T12:04:17;98098.63;;;13.07;71.39
16030;BME280;34770;49.272;11.070;2023-02-18T12:09:23;98079.06;;;13.07;72.52
16030;BME280;34770;49.272;11.070;2023-02-18T12:12:04;98064.69;;;12.89;71.82
16030;BME280;34770;49.272;11.070;2023-02-18T12:14:31;98089.63;;;12.98;70.31
16030;BME280;34770;49.272;11.070;2023-02-18T12:23:01;98108.97;;;12.71;73.69
16030;BME280;34770;49.272;11.070;2023-02-18T12:31:06;98083.66;;;12.48;75.44
16030;BME280;34770;49.272;11.070;2023-02-18T12:43:34;98076.63;;;12.54;76.91
16030;BME280;34770;49.272;11.070;2023-02-18T12:46:25;98078.00;;;12.44;76.19
16030;BME280;34770;49.272;11.070;2023-02-18T12:51:50;98073.38;;;12.52;77.01
16030;BME280;34770;49.272;11.070;2023-02-18T12:54:51;98075.28;;;12.99;74.32
16030;BME280;34770;49.272;11.070;2023-02-18T12:57:21;98053.84;;;13.23;73.26
16030;BME280;34770;49.272;11.070;2023-02-18T13:00:18;98054.81;;;13.31;73.17
16030;BME280;34770;49.272;11.070;2023-02-18T13:05:46;98045.31;;;13.16;74.13
16030;BME280;34770;49.272;11.070;2023-02-18T13:08:42;98046.28;;;13.23;72.45
16030;BME280;34770;49.272;11.070;2023-02-18T13:14:10;98058.91;;;13.17;69.95
16030;BME280;34770;49.272;11.070;2023-02-18T13:16:40;98031.88;;;13.21;70.91
16030;BME280;34770;49.272;11.070;2023-02-18T13:19:32;98048.03;;;13.32;72.90
16030;BME280;34770;49.272;11.070;2023-02-18T13:22:03;98053.16;;;12.90;72.32
16030;BME280;34770;49.272;11.070;2023-02-18T13:24:39;98036.94;;;12.80;72.02
16030;BME280;34770;49.272;11.070;2023-02-18T13:27:31;98027.84;;;12.83;72.19
16030;BME280;34770;49.272;11.070;2023-02-18T13:33:00;98035.19;;;12.72;73.21
16030;BME280;34770;49.272;11.070;2023-02-18T13:35:43;98099.66;;;12.83;71.64
16030;BME280;34770;49.272;11.070;2023-02-18T13:40:56;98029.78;;;12.99;72.33
16030;BME280;34770;49.272;11.070;2023-02-18T13:43:34;98038.41;;;12.74;72.51
16030;BME280;34770;49.272;11.070;2023-02-18T13:48:39;98033.19;;;12.72;72.40
16030;BME280;34770;49.272;11.070;2023-02-18T13:51:06;98020.75;;;12.70;71.90
16030;BME280;34770;49.272;11.070;2023-02-18T13:53:36;98018.66;;;12.83;71.94
16030;BME280;34770;49.272;11.070;2023-02-18T13:56:06;98019.47;;;12.83;71.46
16030;BME280;34770;49.272;11.070;2023-02-18T13:58:39;98005.50;;;12.83;71.40
16030;BME280;34770;49.272;11.070;2023-02-18T14:06:16;98013.25;;;12.74;70.37
16030;BME280;34770;49.272;11.070;2023-02-18T14:08:42;97993.69;;;12.54;70.62
16030;BME280;34770;49.272;11.070;2023-02-18T14:13:47;98022.50;;;12.58;72.96
16030;BME280;34770;49.272;11.070;2023-02-18T14:16:14;98032.31;;;12.52;73.05
16030;BME280;34770;49.272;11.070;2023-02-18T14:28:52;98021.59;;;12.54;73.81
16030;BME280;34770;49.272;11.070;2023-02-18T14:36:41;98009.38;;;12.11;76.21
16030;BME280;34770;49.272;11.070;2023-02-18T14:42:32;98019.38;;;12.12;77.72
16030;BME280;34770;49.272;11.070;2023-02-18T14:50:12;97956.09;;;11.52;80.09
16030;BME280;34770;49.272;11.070;2023-02-18T14:52:46;98030.63;;;12.00;80.30
16030;BME280;34770;49.272;11.070;2023-02-18T14:55:22;97946.56;;;11.53;80.73
16030;BME280;34770;49.272;11.070;2023-02-18T14:57:53;97956.69;;;11.45;81.32
16030;BME280;34770;49.272;11.070;2023-02-18T15:00:23;97972.16;;;11.59;82.47